Historyczne dane pomiarowe

Dodano dane terminowe – wersja testowa.

Dane z okresu 1951-2019

Wersja bazy: 1.34 [2019-03-16, lista zmian], aktualizacja planowana na 2019-04-15

Dane meteo z obszaru Polski uzyskane na podstawie danych udostępnionych przez Instytut Meteorologii i Gospodarki Wodnej – Państwowy Instytut Badawczy.

 

Wybierz Datę:    

       

TemperaturaWilgotnośćWiatrCiśnienieOpadyŚniegCzas trwania zjawisk
 Stacja t tx tn tng RH VA  wxwx mslp ppp RRR   cm mm wxwxwxwxwxwxwx
1994-08-14 14.9 19.9 10.9- 76.8- 5.7 0.0---- 0.0------------
1994-08-13 16.8 22.3 13.9- 84.8- 7.3 2.0---- 5.2------------
1994-08-12 16.5 19.8 13.4- 87.3- 7.3 0.7---- 18.0------------
1994-08-11 18.3 24.4 12.9- 93.3- 6.7 0.7---- 8.1------------
1994-08-10 19.4 26.8 10.9- 74.5- 1.0 0.3---- 0.4------------
1994-08-09 17.9 21.4 15.3- 90.5- 8.0 0.7---- 6.0------------
1994-08-08 20.0 29.4 15.1- 85.0- 7.3 0.7---- 4.7------------
1994-08-07 21.3 30.3 16.0- 79.3- 6.7 0.0---- 4.7------------
1994-08-06 22.3 31.7 11.4- 64.3- 1.0 0.0---- 0.2------------
1994-08-05 21.8 29.7 12.5- 69.8- 0.3 0.0---- 0.0------------
1994-08-04 21.2 28.0 14.1- 75.5- 3.0 0.0---- 0.0------------
1994-08-03 21.8 29.9 13.9- 71.0- 4.7 1.3---- 0.9------------
1994-08-02 22.9 32.3 12.9- 65.0- 1.7 0.0---- 0.0------------
1994-08-01 23.5 33.4 14.5- 61.0- 4.7 0.3---- 0.0------------
1994-07-31 24.2 34.0 11.7- 55.8- 0.7 0.0---- 0.0------------
1994-07-30 23.3 32.6 10.7- 56.5- 0.0 0.0---- 0.0------------
1994-07-29 22.6 31.7 9.9- 54.5- 0.0 0.3---- 0.0------------
1994-07-28 22.2 31.2 11.3- 60.8- 0.0 0.0---- 0.0------------
1994-07-27 21.8 31.5 11.4- 65.8- 0.0 0.0---- 0.0------------
1994-07-26 21.3 30.3 12.3- 69.3- 1.0 0.0---- 0.0------------
1994-07-25 19.7 30.7 10.4- 77.0- 3.0 0.0---- 3.0------------
1994-07-24 21.2 28.4 9.9- 59.8- 0.7 1.3---- 0.0------------
1994-07-23 18.7 27.0 6.9- 65.3- 1.3 1.0---- 0.0------------
1994-07-22 17.1 26.3 6.9- 66.3- 1.0 0.7---- 0.0------------
1994-07-21 17.1 24.7 6.4- 67.0- 0.0 0.3---- 0.0------------
1994-07-20 18.3 22.0 9.5- 66.3- 1.7 1.0---- 0.0------------
1994-07-19 18.9 23.1 12.4- 79.5- 3.3 1.0---- 0.0------------
1994-07-18 20.7 27.0 16.0- 79.0- 3.3 1.0---- 0.0------------
1994-07-17 19.8 27.2 13.3- 82.3- 5.3 0.3---- 1.9------------
1994-07-16 20.0 29.3 11.9- 80.0- 5.3 0.0---- 10.1------------
1994-07-15 19.3 26.8 10.9- 78.3- 4.0 0.3---- 0.0------------
1994-07-14 19.0 26.8 10.7- 73.8- 5.7 1.3---- 0.0------------
1994-07-13 19.6 26.3 9.7- 70.5- 4.7 0.7---- 0.0------------
1994-07-12 19.7 24.4 14.9- 78.8- 4.3 0.3---- 0.0------------
1994-07-11 16.5 23.4 9.7- 86.3- 4.3 1.0---- 0.2------------
1994-07-10 14.0 18.4 11.5- 93.5- 7.7 1.0---- 3.6------------
1994-07-09 13.6 18.7 8.4- 84.3- 7.7 0.0---- 14.7------------
1994-07-08 15.9 21.3 13.7- 79.5- 5.3 0.3---- 0.5------------
1994-07-07 17.3 26.2 7.9- 79.5- 7.3 0.3---- 12.0------------
1994-07-06 19.9 25.2 11.4- 67.8- 2.3 1.0---- 0.0------------
1994-07-05 18.1 24.9 9.9- 76.5- 6.3 0.0---- 0.0------------
1994-07-04 19.0 28.6 6.9- 65.0- 1.0 0.7---- 0.0------------
1994-07-03 18.3 25.6 6.2- 66.5- 0.7 0.3---- 0.0------------
1994-07-02 17.9 23.7 6.5- 69.5- 0.0 1.0---- 0.0------------
1994-07-01 19.6 23.5 16.0- 70.0- 3.3 1.3---- 0.0------------
1994-06-30 22.1 26.8 16.6- 81.3- 5.3 1.3---- 0.2------------
1994-06-29 22.8 30.1 13.4- 79.3- 1.0 1.0---- 0.0------------
1994-06-28 22.7 29.0 14.9- 81.0- 3.0 1.3---- 0.0------------
1994-06-27 23.3 31.3 14.7- 73.8- 4.0 1.3---- 0.0------------
1994-06-26 19.8 29.3 8.9- 66.8- 1.0 1.0---- 0.0------------
1994-06-25 15.0 22.9 1.5- 63.8- 0.7 0.0---- 0.0------------
1994-06-24 14.2 20.4 4.0- 67.0- 1.0 1.7---- 0.0------------
1994-06-23 17.2 21.8 14.4- 61.8- 3.7 3.0---- 0.0------------
1994-06-22 18.1 27.5 6.4- 73.8- 3.7 0.3---- 0.0------------
1994-06-21 15.2 21.1 5.8- 73.8- 2.7 0.7---- 0.0------------
1994-06-20 16.2 21.6 7.4- 78.5- 5.7 0.7---- 0.0------------
1994-06-19 18.5 25.8 10.4- 66.0- 4.7 1.7---- 0.0------------
1994-06-18 13.0 19.4 4.2- 75.0- 4.3 2.3---- 7.8------------
1994-06-17 10.7 14.6 8.1- 80.3- 7.0 1.7---- 0.0------------
1994-06-16 13.2 16.9 4.8- 71.5- 6.3 1.3---- 2.3------------
217.5 ms

 

Źródłem pochodzenia danych jest Instytut Meteorologii i Gospodarki Wodnej – Państwowy Instytut Badawczy. Dane Instytutu Meteorologii i Gospodarki Wodnej – Państwowego Instytutu Badawczego zostały przetworzone.

Dane źródłowe można odnaleźć na stronie https://dane.imgw.pl